sensor_id;sensor_type;location;lat;lon;timestamp;P1;durP1;ratioP1;P2;durP2;ratioP2
50291;SDS011;36190;54.980;73.388;2023-03-11T00:00:26;10.75;;;4.07;;
50291;SDS011;36190;54.980;73.388;2023-03-11T00:02:56;12.93;;;5.32;;
50291;SDS011;36190;54.980;73.388;2023-03-11T00:05:25;12.95;;;5.47;;
50291;SDS011;36190;54.980;73.388;2023-03-11T00:07:56;11.80;;;5.15;;
50291;SDS011;36190;54.980;73.388;2023-03-11T00:10:25;11.50;;;4.63;;
50291;SDS011;36190;54.980;73.388;2023-03-11T00:12:53;12.95;;;4.50;;
50291;SDS011;36190;54.980;73.388;2023-03-11T00:15:21;13.82;;;6.05;;
50291;SDS011;36190;54.980;73.388;2023-03-11T00:17:48;21.52;;;11.00;;
50291;SDS011;36190;54.980;73.388;2023-03-11T00:20:18;14.40;;;5.43;;
50291;SDS011;36190;54.980;73.388;2023-03-11T00:22:48;16.10;;;6.70;;
50291;SDS011;36190;54.980;73.388;2023-03-11T00:25:17;12.27;;;5.00;;
50291;SDS011;36190;54.980;73.388;2023-03-11T00:27:45;12.15;;;4.75;;
50291;SDS011;36190;54.980;73.388;2023-03-11T00:30:14;12.95;;;5.15;;
50291;SDS011;36190;54.980;73.388;2023-03-11T00:32:42;18.45;;;8.98;;
50291;SDS011;36190;54.980;73.388;2023-03-11T00:35:11;24.00;;;10.60;;
50291;SDS011;36190;54.980;73.388;2023-03-11T00:37:39;14.27;;;5.93;;
50291;SDS011;36190;54.980;73.388;2023-03-11T00:40:12;11.98;;;5.53;;
50291;SDS011;36190;54.980;73.388;2023-03-11T00:45:09;12.60;;;4.65;;
50291;SDS011;36190;54.980;73.388;2023-03-11T00:47:37;11.30;;;4.55;;
50291;SDS011;36190;54.980;73.388;2023-03-11T00:50:05;12.13;;;5.25;;
50291;SDS011;36190;54.980;73.388;2023-03-11T00:52:36;13.65;;;5.43;;
50291;SDS011;36190;54.980;73.388;2023-03-11T00:55:04;14.10;;;5.13;;
50291;SDS011;36190;54.980;73.388;2023-03-11T00:57:34;15.88;;;5.93;;
50291;SDS011;36190;54.980;73.388;2023-03-11T01:00:01;16.67;;;6.07;;
50291;SDS011;36190;54.980;73.388;2023-03-11T01:02:31;16.83;;;6.32;;
50291;SDS011;36190;54.980;73.388;2023-03-11T01:05:00;14.93;;;5.82;;
50291;SDS011;36190;54.980;73.388;2023-03-11T01:07:28;14.68;;;5.68;;
50291;SDS011;36190;54.980;73.388;2023-03-11T01:09:55;17.98;;;6.13;;
50291;SDS011;36190;54.980;73.388;2023-03-11T01:12:22;14.52;;;5.50;;
50291;SDS011;36190;54.980;73.388;2023-03-11T01:14:51;14.45;;;5.75;;
50291;SDS011;36190;54.980;73.388;2023-03-11T01:17:19;20.38;;;8.82;;
50291;SDS011;36190;54.980;73.388;2023-03-11T01:19:47;22.92;;;8.23;;
50291;SDS011;36190;54.980;73.388;2023-03-11T01:22:15;14.07;;;5.75;;
50291;SDS011;36190;54.980;73.388;2023-03-11T01:24:42;14.27;;;5.78;;
50291;SDS011;36190;54.980;73.388;2023-03-11T01:27:10;12.90;;;5.40;;
50291;SDS011;36190;54.980;73.388;2023-03-11T01:29:37;15.52;;;5.75;;
50291;SDS011;36190;54.980;73.388;2023-03-11T01:32:07;11.80;;;5.20;;
50291;SDS011;36190;54.980;73.388;2023-03-11T01:34:35;11.93;;;5.35;;
50291;SDS011;36190;54.980;73.388;2023-03-11T01:37:03;11.50;;;4.68;;
50291;SDS011;36190;54.980;73.388;2023-03-11T01:39:30;12.43;;;5.22;;
50291;SDS011;36190;54.980;73.388;2023-03-11T01:41:58;11.95;;;4.57;;
50291;SDS011;36190;54.980;73.388;2023-03-11T01:44:25;11.65;;;5.07;;
50291;SDS011;36190;54.980;73.388;2023-03-11T01:49:58;10.80;;;4.78;;
50291;SDS011;36190;54.980;73.388;2023-03-11T01:52:27;12.05;;;4.68;;
50291;SDS011;36190;54.980;73.388;2023-03-11T01:54:54;10.75;;;4.53;;
50291;SDS011;36190;54.980;73.388;2023-03-11T01:57:22;10.82;;;4.60;;
50291;SDS011;36190;54.980;73.388;2023-03-11T01:59:51;12.02;;;5.55;;
50291;SDS011;36190;54.980;73.388;2023-03-11T02:02:22;14.35;;;5.90;;
50291;SDS011;36190;54.980;73.388;2023-03-11T02:04:54;16.33;;;5.55;;
50291;SDS011;36190;54.980;73.388;2023-03-11T02:07:24;13.73;;;5.60;;
50291;SDS011;36190;54.980;73.388;2023-03-11T02:09:51;13.10;;;4.80;;
50291;SDS011;36190;54.980;73.388;2023-03-11T02:12:19;12.50;;;5.03;;
50291;SDS011;36190;54.980;73.388;2023-03-11T02:14:47;13.02;;;4.82;;
50291;SDS011;36190;54.980;73.388;2023-03-11T02:17:18;13.70;;;5.13;;
50291;SDS011;36190;54.980;73.388;2023-03-11T02:19:58;12.55;;;4.90;;
50291;SDS011;36190;54.980;73.388;2023-03-11T02:22:38;11.88;;;5.20;;
50291;SDS011;36190;54.980;73.388;2023-03-11T02:25:08;13.75;;;5.20;;
50291;SDS011;36190;54.980;73.388;2023-03-11T02:27:44;12.88;;;4.90;;
50291;SDS011;36190;54.980;73.388;2023-03-11T02:30:13;12.27;;;5.22;;
50291;SDS011;36190;54.980;73.388;2023-03-11T02:32:43;12.13;;;5.57;;
50291;SDS011;36190;54.980;73.388;2023-03-11T02:35:13;13.93;;;5.70;;
50291;SDS011;36190;54.980;73.388;2023-03-11T02:37:45;13.27;;;5.20;;
50291;SDS011;36190;54.980;73.388;2023-03-11T02:40:24;11.82;;;4.40;;
50291;SDS011;36190;54.980;73.388;2023-03-11T02:43:14;10.43;;;4.05;;
50291;SDS011;36190;54.980;73.388;2023-03-11T02:45:45;13.95;;;4.70;;
50291;SDS011;36190;54.980;73.388;2023-03-11T02:48:14;13.02;;;4.70;;
50291;SDS011;36190;54.980;73.388;2023-03-11T02:50:43;13.02;;;4.80;;
50291;SDS011;36190;54.980;73.388;2023-03-11T02:53:12;12.85;;;5.47;;
50291;SDS011;36190;54.980;73.388;2023-03-11T02:55:40;13.60;;;5.18;;
50291;SDS011;36190;54.980;73.388;2023-03-11T02:58:07;12.32;;;5.22;;
50291;SDS011;36190;54.980;73.388;2023-03-11T03:00:36;13.15;;;5.03;;
50291;SDS011;36190;54.980;73.388;2023-03-11T03:03:04;13.05;;;5.70;;
50291;SDS011;36190;54.980;73.388;2023-03-11T03:05:31;12.13;;;5.95;;
50291;SDS011;36190;54.980;73.388;2023-03-11T03:07:59;12.25;;;5.38;;
50291;SDS011;36190;54.980;73.388;2023-03-11T03:10:27;13.90;;;5.57;;
50291;SDS011;36190;54.980;73.388;2023-03-11T03:12:54;11.07;;;4.93;;
50291;SDS011;36190;54.980;73.388;2023-03-11T03:15:22;13.18;;;5.35;;
50291;SDS011;36190;54.980;73.388;2023-03-11T03:17:51;15.15;;;6.75;;
50291;SDS011;36190;54.980;73.388;2023-03-11T03:20:18;13.00;;;5.80;;
50291;SDS011;36190;54.980;73.388;2023-03-11T03:22:47;15.15;;;5.80;;
50291;SDS011;36190;54.980;73.388;2023-03-11T03:25:15;12.48;;;6.07;;
50291;SDS011;36190;54.980;73.388;2023-03-11T03:27:43;12.55;;;4.88;;
50291;SDS011;36190;54.980;73.388;2023-03-11T03:30:11;11.65;;;5.35;;
50291;SDS011;36190;54.980;73.388;2023-03-11T03:32:39;12.90;;;4.82;;
50291;SDS011;36190;54.980;73.388;2023-03-11T03:35:08;11.95;;;4.82;;
50291;SDS011;36190;54.980;73.388;2023-03-11T03:37:36;11.70;;;4.82;;
50291;SDS011;36190;54.980;73.388;2023-03-11T03:40:04;11.50;;;4.75;;
50291;SDS011;36190;54.980;73.388;2023-03-11T03:42:33;11.80;;;5.43;;
50291;SDS011;36190;54.980;73.388;2023-03-11T03:45:01;16.48;;;5.90;;
50291;SDS011;36190;54.980;73.388;2023-03-11T03:47:28;13.35;;;5.55;;
50291;SDS011;36190;54.980;73.388;2023-03-11T03:49:57;13.93;;;6.10;;
50291;SDS011;36190;54.980;73.388;2023-03-11T03:52:26;17.58;;;6.68;;
50291;SDS011;36190;54.980;73.388;2023-03-11T03:54:53;14.18;;;5.97;;
50291;SDS011;36190;54.980;73.388;2023-03-11T03:57:20;14.95;;;6.60;;
50291;SDS011;36190;54.980;73.388;2023-03-11T03:59:48;15.50;;;6.40;;
50291;SDS011;36190;54.980;73.388;2023-03-11T04:02:16;17.42;;;7.43;;
50291;SDS011;36190;54.980;73.388;2023-03-11T04:04:43;17.48;;;7.80;;
50291;SDS011;36190;54.980;73.388;2023-03-11T04:07:10;19.35;;;8.27;;
50291;SDS011;36190;54.980;73.388;2023-03-11T04:09:40;23.00;;;10.07;;
50291;SDS011;36190;54.980;73.388;2023-03-11T04:12:08;20.90;;;9.23;;
50291;SDS011;36190;54.980;73.388;2023-03-11T04:14:38;15.70;;;7.22;;
50291;SDS011;36190;54.980;73.388;2023-03-11T04:17:06;16.73;;;7.47;;
50291;SDS011;36190;54.980;73.388;2023-03-11T04:19:34;15.15;;;6.75;;
50291;SDS011;36190;54.980;73.388;2023-03-11T04:22:01;18.23;;;7.65;;
50291;SDS011;36190;54.980;73.388;2023-03-11T04:24:29;16.25;;;7.10;;
50291;SDS011;36190;54.980;73.388;2023-03-11T04:26:58;16.05;;;6.57;;
50291;SDS011;36190;54.980;73.388;2023-03-11T04:29:25;13.02;;;5.78;;
50291;SDS011;36190;54.980;73.388;2023-03-11T04:31:53;12.45;;;5.68;;
50291;SDS011;36190;54.980;73.388;2023-03-11T04:34:20;13.98;;;5.85;;
50291;SDS011;36190;54.980;73.388;2023-03-11T04:36:50;14.15;;;6.13;;
50291;SDS011;36190;54.980;73.388;2023-03-11T04:39:18;14.93;;;5.93;;
50291;SDS011;36190;54.980;73.388;2023-03-11T04:41:46;12.02;;;5.70;;
50291;SDS011;36190;54.980;73.388;2023-03-11T04:44:15;13.20;;;5.70;;
50291;SDS011;36190;54.980;73.388;2023-03-11T04:46:43;15.07;;;6.68;;
50291;SDS011;36190;54.980;73.388;2023-03-11T04:49:10;16.25;;;7.15;;
50291;SDS011;36190;54.980;73.388;2023-03-11T04:51:37;23.88;;;10.77;;
50291;SDS011;36190;54.980;73.388;2023-03-11T04:54:05;22.17;;;9.88;;
50291;SDS011;36190;54.980;73.388;2023-03-11T04:56:32;19.73;;;8.38;;
50291;SDS011;36190;54.980;73.388;2023-03-11T04:59:00;16.88;;;8.65;;
50291;SDS011;36190;54.980;73.388;2023-03-11T05:01:29;13.27;;;6.35;;
50291;SDS011;36190;54.980;73.388;2023-03-11T05:03:57;16.38;;;6.45;;
50291;SDS011;36190;54.980;73.388;2023-03-11T05:06:24;16.25;;;7.55;;
50291;SDS011;36190;54.980;73.388;2023-03-11T05:08:52;14.73;;;8.02;;
50291;SDS011;36190;54.980;73.388;2023-03-11T05:11:19;15.18;;;6.28;;
50291;SDS011;36190;54.980;73.388;2023-03-11T05:13:47;12.40;;;6.53;;
50291;SDS011;36190;54.980;73.388;2023-03-11T05:16:14;15.38;;;6.32;;
50291;SDS011;36190;54.980;73.388;2023-03-11T05:18:43;15.00;;;7.22;;
50291;SDS011;36190;54.980;73.388;2023-03-11T05:21:11;16.85;;;8.02;;
50291;SDS011;36190;54.980;73.388;2023-03-11T05:23:38;20.27;;;8.63;;
50291;SDS011;36190;54.980;73.388;2023-03-11T05:26:06;16.77;;;7.32;;
50291;SDS011;36190;54.980;73.388;2023-03-11T05:28:33;15.65;;;7.65;;
50291;SDS011;36190;54.980;73.388;2023-03-11T05:31:01;14.93;;;7.72;;
50291;SDS011;36190;54.980;73.388;2023-03-11T05:33:28;15.95;;;6.75;;
50291;SDS011;36190;54.980;73.388;2023-03-11T05:36:04;13.75;;;7.05;;
50291;SDS011;36190;54.980;73.388;2023-03-11T05:38:32;18.60;;;9.02;;
50291;SDS011;36190;54.980;73.388;2023-03-11T05:41:00;15.10;;;6.53;;
50291;SDS011;36190;54.980;73.388;2023-03-11T05:43:27;17.27;;;7.82;;
50291;SDS011;36190;54.980;73.388;2023-03-11T05:45:55;14.23;;;6.85;;
50291;SDS011;36190;54.980;73.388;2023-03-11T05:48:22;18.02;;;8.20;;
50291;SDS011;36190;54.980;73.388;2023-03-11T05:50:50;13.75;;;5.93;;
50291;SDS011;36190;54.980;73.388;2023-03-11T05:53:19;11.18;;;4.85;;
50291;SDS011;36190;54.980;73.388;2023-03-11T05:55:54;10.50;;;4.72;;
50291;SDS011;36190;54.980;73.388;2023-03-11T05:58:22;12.75;;;5.53;;
50291;SDS011;36190;54.980;73.388;2023-03-11T06:00:49;12.43;;;5.30;;
50291;SDS011;36190;54.980;73.388;2023-03-11T06:03:17;15.95;;;6.47;;
50291;SDS011;36190;54.980;73.388;2023-03-11T06:05:45;16.00;;;5.93;;
50291;SDS011;36190;54.980;73.388;2023-03-11T06:08:12;12.20;;;5.28;;
50291;SDS011;36190;54.980;73.388;2023-03-11T06:10:41;14.05;;;6.15;;
50291;SDS011;36190;54.980;73.388;2023-03-11T06:13:09;10.65;;;5.00;;
50291;SDS011;36190;54.980;73.388;2023-03-11T06:15:37;12.30;;;5.20;;
50291;SDS011;36190;54.980;73.388;2023-03-11T06:18:05;13.57;;;5.97;;
50291;SDS011;36190;54.980;73.388;2023-03-11T06:20:32;12.93;;;5.78;;
50291;SDS011;36190;54.980;73.388;2023-03-11T06:23:02;11.45;;;5.32;;
50291;SDS011;36190;54.980;73.388;2023-03-11T06:25:29;12.13;;;5.18;;
50291;SDS011;36190;54.980;73.388;2023-03-11T06:27:58;12.27;;;6.20;;
50291;SDS011;36190;54.980;73.388;2023-03-11T06:30:25;15.82;;;6.53;;
50291;SDS011;36190;54.980;73.388;2023-03-11T06:32:53;11.90;;;5.70;;
50291;SDS011;36190;54.980;73.388;2023-03-11T06:35:20;12.45;;;5.45;;
50291;SDS011;36190;54.980;73.388;2023-03-11T06:37:48;11.80;;;5.43;;
50291;SDS011;36190;54.980;73.388;2023-03-11T06:40:16;13.13;;;6.35;;
50291;SDS011;36190;54.980;73.388;2023-03-11T06:42:44;16.05;;;7.57;;
50291;SDS011;36190;54.980;73.388;2023-03-11T06:45:13;14.52;;;6.53;;
50291;SDS011;36190;54.980;73.388;2023-03-11T06:47:41;12.90;;;5.90;;
50291;SDS011;36190;54.980;73.388;2023-03-11T06:50:09;11.00;;;5.15;;
50291;SDS011;36190;54.980;73.388;2023-03-11T06:52:37;11.73;;;5.43;;
50291;SDS011;36190;54.980;73.388;2023-03-11T06:55:04;13.57;;;5.35;;
50291;SDS011;36190;54.980;73.388;2023-03-11T06:57:33;11.18;;;4.18;;
50291;SDS011;36190;54.980;73.388;2023-03-11T07:00:00;11.32;;;5.38;;
50291;SDS011;36190;54.980;73.388;2023-03-11T07:02:31;11.93;;;5.53;;
50291;SDS011;36190;54.980;73.388;2023-03-11T07:04:59;15.38;;;7.07;;
50291;SDS011;36190;54.980;73.388;2023-03-11T07:07:27;12.55;;;5.57;;
50291;SDS011;36190;54.980;73.388;2023-03-11T07:09:54;15.73;;;7.13;;
50291;SDS011;36190;54.980;73.388;2023-03-11T07:12:23;13.52;;;6.45;;
50291;SDS011;36190;54.980;73.388;2023-03-11T07:14:53;14.02;;;5.13;;
50291;SDS011;36190;54.980;73.388;2023-03-11T07:17:20;12.07;;;5.20;;
50291;SDS011;36190;54.980;73.388;2023-03-11T07:19:50;12.40;;;5.25;;
50291;SDS011;36190;54.980;73.388;2023-03-11T07:22:18;16.90;;;4.60;;
50291;SDS011;36190;54.980;73.388;2023-03-11T07:24:47;10.75;;;5.20;;
50291;SDS011;36190;54.980;73.388;2023-03-11T07:27:15;10.55;;;4.60;;
50291;SDS011;36190;54.980;73.388;2023-03-11T07:29:42;11.35;;;5.15;;
50291;SDS011;36190;54.980;73.388;2023-03-11T07:32:10;12.30;;;5.35;;
50291;SDS011;36190;54.980;73.388;2023-03-11T07:34:37;13.65;;;5.95;;
50291;SDS011;36190;54.980;73.388;2023-03-11T07:37:06;10.55;;;5.07;;
50291;SDS011;36190;54.980;73.388;2023-03-11T07:39:34;11.15;;;4.70;;
50291;SDS011;36190;54.980;73.388;2023-03-11T07:42:02;15.63;;;5.38;;
50291;SDS011;36190;54.980;73.388;2023-03-11T07:44:30;11.93;;;5.07;;
50291;SDS011;36190;54.980;73.388;2023-03-11T07:47:00;13.38;;;4.75;;
50291;SDS011;36190;54.980;73.388;2023-03-11T07:49:28;11.60;;;4.40;;
50291;SDS011;36190;54.980;73.388;2023-03-11T07:51:55;12.02;;;4.53;;
50291;SDS011;36190;54.980;73.388;2023-03-11T07:54:24;19.02;;;7.80;;
50291;SDS011;36190;54.980;73.388;2023-03-11T07:56:52;12.05;;;4.75;;
50291;SDS011;36190;54.980;73.388;2023-03-11T07:59:19;10.77;;;4.10;;
50291;SDS011;36190;54.980;73.388;2023-03-11T08:01:47;10.55;;;4.47;;
50291;SDS011;36190;54.980;73.388;2023-03-11T08:04:15;12.80;;;4.95;;
50291;SDS011;36190;54.980;73.388;2023-03-11T08:06:43;13.52;;;5.55;;
50291;SDS011;36190;54.980;73.388;2023-03-11T08:09:11;11.57;;;4.78;;
50291;SDS011;36190;54.980;73.388;2023-03-11T08:11:41;13.70;;;5.97;;
50291;SDS011;36190;54.980;73.388;2023-03-11T08:14:08;9.82;;;3.88;;
50291;SDS011;36190;54.980;73.388;2023-03-11T08:16:37;10.63;;;4.35;;
50291;SDS011;36190;54.980;73.388;2023-03-11T08:19:05;11.07;;;4.22;;
50291;SDS011;36190;54.980;73.388;2023-03-11T08:21:33;9.90;;;4.03;;
50291;SDS011;36190;54.980;73.388;2023-03-11T08:24:01;10.75;;;5.05;;
50291;SDS011;36190;54.980;73.388;2023-03-11T08:26:28;10.50;;;4.60;;
50291;SDS011;36190;54.980;73.388;2023-03-11T08:28:58;11.70;;;4.50;;
50291;SDS011;36190;54.980;73.388;2023-03-11T08:31:27;11.57;;;4.65;;
50291;SDS011;36190;54.980;73.388;2023-03-11T08:33:56;10.48;;;4.13;;
50291;SDS011;36190;54.980;73.388;2023-03-11T08:36:25;8.95;;;4.03;;
50291;SDS011;36190;54.980;73.388;2023-03-11T08:38:53;11.77;;;4.63;;
50291;SDS011;36190;54.980;73.388;2023-03-11T08:41:20;11.88;;;4.68;;
50291;SDS011;36190;54.980;73.388;2023-03-11T08:43:48;13.27;;;5.03;;
50291;SDS011;36190;54.980;73.388;2023-03-11T08:46:19;9.07;;;4.15;;
50291;SDS011;36190;54.980;73.388;2023-03-11T08:48:48;16.42;;;7.18;;
50291;SDS011;36190;54.980;73.388;2023-03-11T08:51:16;13.85;;;6.40;;
50291;SDS011;36190;54.980;73.388;2023-03-11T08:53:44;12.90;;;6.07;;
50291;SDS011;36190;54.980;73.388;2023-03-11T08:56:11;15.90;;;5.05;;
50291;SDS011;36190;54.980;73.388;2023-03-11T08:58:39;13.80;;;4.75;;
50291;SDS011;36190;54.980;73.388;2023-03-11T09:01:06;11.35;;;4.90;;
50291;SDS011;36190;54.980;73.388;2023-03-11T09:03:36;11.85;;;4.75;;
50291;SDS011;36190;54.980;73.388;2023-03-11T09:06:04;12.50;;;4.40;;
50291;SDS011;36190;54.980;73.388;2023-03-11T09:08:34;9.85;;;4.28;;
50291;SDS011;36190;54.980;73.388;2023-03-11T09:11:01;12.70;;;4.30;;
50291;SDS011;36190;54.980;73.388;2023-03-11T09:13:29;10.75;;;4.57;;
50291;SDS011;36190;54.980;73.388;2023-03-11T09:15:57;11.65;;;4.82;;
50291;SDS011;36190;54.980;73.388;2023-03-11T09:18:24;11.30;;;5.57;;
50291;SDS011;36190;54.980;73.388;2023-03-11T09:20:55;14.75;;;6.22;;
50291;SDS011;36190;54.980;73.388;2023-03-11T09:23:22;12.63;;;6.00;;
50291;SDS011;36190;54.980;73.388;2023-03-11T09:25:50;12.88;;;5.22;;
50291;SDS011;36190;54.980;73.388;2023-03-11T09:28:17;13.50;;;5.25;;
50291;SDS011;36190;54.980;73.388;2023-03-11T09:30:46;12.63;;;4.70;;
50291;SDS011;36190;54.980;73.388;2023-03-11T09:33:13;11.25;;;4.72;;
50291;SDS011;36190;54.980;73.388;2023-03-11T09:35:41;13.52;;;5.43;;
50291;SDS011;36190;54.980;73.388;2023-03-11T09:38:10;12.43;;;6.05;;
50291;SDS011;36190;54.980;73.388;2023-03-11T09:40:44;14.38;;;5.68;;
50291;SDS011;36190;54.980;73.388;2023-03-11T09:43:26;14.82;;;6.20;;
50291;SDS011;36190;54.980;73.388;2023-03-11T09:46:11;10.88;;;4.95;;
50291;SDS011;36190;54.980;73.388;2023-03-11T09:48:51;12.18;;;5.60;;
50291;SDS011;36190;54.980;73.388;2023-03-11T09:51:26;15.05;;;6.07;;
50291;SDS011;36190;54.980;73.388;2023-03-11T09:53:58;13.00;;;6.28;;
50291;SDS011;36190;54.980;73.388;2023-03-11T09:56:29;15.13;;;6.20;;
50291;SDS011;36190;54.980;73.388;2023-03-11T09:59:00;14.07;;;6.13;;
50291;SDS011;36190;54.980;73.388;2023-03-11T10:01:32;16.15;;;6.53;;
50291;SDS011;36190;54.980;73.388;2023-03-11T10:04:03;14.68;;;6.55;;
50291;SDS011;36190;54.980;73.388;2023-03-11T10:06:36;16.45;;;6.70;;
50291;SDS011;36190;54.980;73.388;2023-03-11T10:09:11;13.68;;;6.13;;
50291;SDS011;36190;54.980;73.388;2023-03-11T10:12:02;16.17;;;6.77;;
50291;SDS011;36190;54.980;73.388;2023-03-11T10:14:51;18.05;;;7.28;;
50291;SDS011;36190;54.980;73.388;2023-03-11T10:17:33;13.88;;;6.57;;
50291;SDS011;36190;54.980;73.388;2023-03-11T10:20:12;18.10;;;6.90;;
50291;SDS011;36190;54.980;73.388;2023-03-11T10:22:45;14.82;;;6.43;;
50291;SDS011;36190;54.980;73.388;2023-03-11T10:25:23;15.65;;;6.15;;
50291;SDS011;36190;54.980;73.388;2023-03-11T10:27:53;15.88;;;7.55;;
50291;SDS011;36190;54.980;73.388;2023-03-11T10:30:26;16.70;;;6.82;;
50291;SDS011;36190;54.980;73.388;2023-03-11T10:32:58;16.13;;;7.63;;
50291;SDS011;36190;54.980;73.388;2023-03-11T10:35:32;19.00;;;8.68;;
50291;SDS011;36190;54.980;73.388;2023-03-11T10:38:06;14.77;;;7.47;;
50291;SDS011;36190;54.980;73.388;2023-03-11T10:40:43;15.55;;;8.38;;
50291;SDS011;36190;54.980;73.388;2023-03-11T10:43:12;15.93;;;8.02;;
50291;SDS011;36190;54.980;73.388;2023-03-11T10:45:43;17.77;;;7.53;;
50291;SDS011;36190;54.980;73.388;2023-03-11T10:48:14;18.20;;;8.48;;
50291;SDS011;36190;54.980;73.388;2023-03-11T10:50:46;17.73;;;7.80;;
50291;SDS011;36190;54.980;73.388;2023-03-11T10:53:18;15.30;;;7.72;;
50291;SDS011;36190;54.980;73.388;2023-03-11T10:55:48;17.65;;;7.30;;
50291;SDS011;36190;54.980;73.388;2023-03-11T10:58:17;15.18;;;7.20;;
50291;SDS011;36190;54.980;73.388;2023-03-11T11:00:58;13.88;;;7.00;;
50291;SDS011;36190;54.980;73.388;2023-03-11T11:03:26;16.70;;;7.53;;
50291;SDS011;36190;54.980;73.388;2023-03-11T11:05:58;16.58;;;7.22;;
50291;SDS011;36190;54.980;73.388;2023-03-11T11:08:27;16.65;;;7.53;;
50291;SDS011;36190;54.980;73.388;2023-03-11T11:10:58;14.43;;;7.03;;
50291;SDS011;36190;54.980;73.388;2023-03-11T11:13:27;14.65;;;6.63;;
50291;SDS011;36190;54.980;73.388;2023-03-11T11:15:57;13.40;;;6.30;;
50291;SDS011;36190;54.980;73.388;2023-03-11T11:18:26;17.90;;;6.88;;
50291;SDS011;36190;54.980;73.388;2023-03-11T11:20:58;16.30;;;7.40;;
50291;SDS011;36190;54.980;73.388;2023-03-11T11:23:31;17.45;;;7.10;;
50291;SDS011;36190;54.980;73.388;2023-03-11T11:26:04;15.90;;;6.90;;
50291;SDS011;36190;54.980;73.388;2023-03-11T11:28:34;16.98;;;7.70;;
50291;SDS011;36190;54.980;73.388;2023-03-11T11:31:02;19.42;;;7.13;;
50291;SDS011;36190;54.980;73.388;2023-03-11T11:33:31;14.85;;;6.10;;
50291;SDS011;36190;54.980;73.388;2023-03-11T11:36:04;16.08;;;7.13;;
50291;SDS011;36190;54.980;73.388;2023-03-11T11:41:12;15.07;;;5.80;;
50291;SDS011;36190;54.980;73.388;2023-03-11T11:43:45;14.20;;;6.50;;
50291;SDS011;36190;54.980;73.388;2023-03-11T11:46:18;16.10;;;6.72;;
50291;SDS011;36190;54.980;73.388;2023-03-11T11:48:57;17.38;;;7.75;;
50291;SDS011;36190;54.980;73.388;2023-03-11T11:51:32;14.95;;;7.18;;
50291;SDS011;36190;54.980;73.388;2023-03-11T11:54:08;16.52;;;7.18;;
50291;SDS011;36190;54.980;73.388;2023-03-11T11:56:44;17.42;;;7.22;;
50291;SDS011;36190;54.980;73.388;2023-03-11T11:59:15;16.00;;;7.43;;
50291;SDS011;36190;54.980;73.388;2023-03-11T12:01:47;15.35;;;7.25;;
50291;SDS011;36190;54.980;73.388;2023-03-11T12:07:19;16.15;;;7.45;;
50291;SDS011;36190;54.980;73.388;2023-03-11T12:09:59;13.50;;;6.75;;
50291;SDS011;36190;54.980;73.388;2023-03-11T12:12:43;15.80;;;8.15;;
50291;SDS011;36190;54.980;73.388;2023-03-11T12:15:19;17.00;;;8.77;;
50291;SDS011;36190;54.980;73.388;2023-03-11T12:17:50;19.45;;;8.20;;
50291;SDS011;36190;54.980;73.388;2023-03-11T12:20:23;16.40;;;7.85;;
50291;SDS011;36190;54.980;73.388;2023-03-11T12:23:13;16.27;;;7.88;;
50291;SDS011;36190;54.980;73.388;2023-03-11T12:25:51;13.25;;;6.30;;
50291;SDS011;36190;54.980;73.388;2023-03-11T12:28:32;13.88;;;6.50;;
50291;SDS011;36190;54.980;73.388;2023-03-11T12:31:07;16.95;;;6.57;;
50291;SDS011;36190;54.980;73.388;2023-03-11T12:33:36;15.32;;;6.70;;
50291;SDS011;36190;54.980;73.388;2023-03-11T12:36:16;15.10;;;6.00;;
50291;SDS011;36190;54.980;73.388;2023-03-11T12:38:49;11.60;;;5.03;;
50291;SDS011;36190;54.980;73.388;2023-03-11T12:41:28;14.23;;;5.93;;
50291;SDS011;36190;54.980;73.388;2023-03-11T12:44:03;14.73;;;6.40;;
50291;SDS011;36190;54.980;73.388;2023-03-11T12:49:48;12.73;;;6.32;;
50291;SDS011;36190;54.980;73.388;2023-03-11T12:52:28;16.40;;;6.57;;
50291;SDS011;36190;54.980;73.388;2023-03-11T12:58:15;14.05;;;6.50;;
50291;SDS011;36190;54.980;73.388;2023-03-11T13:01:23;17.52;;;6.60;;
50291;SDS011;36190;54.980;73.388;2023-03-11T13:04:26;16.55;;;7.47;;
50291;SDS011;36190;54.980;73.388;2023-03-11T13:10:13;26.38;;;9.77;;
50291;SDS011;36190;54.980;73.388;2023-03-11T13:12:44;18.08;;;8.27;;
50291;SDS011;36190;54.980;73.388;2023-03-11T13:15:24;21.02;;;8.05;;
50291;SDS011;36190;54.980;73.388;2023-03-11T13:17:59;17.48;;;7.72;;
50291;SDS011;36190;54.980;73.388;2023-03-11T13:20:42;17.52;;;7.47;;
50291;SDS011;36190;54.980;73.388;2023-03-11T13:23:28;17.83;;;7.25;;
50291;SDS011;36190;54.980;73.388;2023-03-11T13:29:01;14.05;;;6.00;;
50291;SDS011;36190;54.980;73.388;2023-03-11T13:31:54;13.57;;;6.28;;
50291;SDS011;36190;54.980;73.388;2023-03-11T13:34:36;15.40;;;5.63;;
50291;SDS011;36190;54.980;73.388;2023-03-11T13:37:12;14.02;;;6.05;;
50291;SDS011;36190;54.980;73.388;2023-03-11T13:39:52;13.63;;;6.25;;
50291;SDS011;36190;54.980;73.388;2023-03-11T13:42:29;13.88;;;5.85;;
50291;SDS011;36190;54.980;73.388;2023-03-11T13:44:59;13.13;;;5.63;;
50291;SDS011;36190;54.980;73.388;2023-03-11T13:47:29;14.07;;;6.10;;
50291;SDS011;36190;54.980;73.388;2023-03-11T13:50:00;11.30;;;4.65;;
50291;SDS011;36190;54.980;73.388;2023-03-11T13:52:31;13.68;;;5.65;;
50291;SDS011;36190;54.980;73.388;2023-03-11T13:55:02;13.90;;;5.38;;
50291;SDS011;36190;54.980;73.388;2023-03-11T13:57:33;12.57;;;4.93;;
50291;SDS011;36190;54.980;73.388;2023-03-11T14:00:04;12.32;;;4.68;;
50291;SDS011;36190;54.980;73.388;2023-03-11T14:02:46;14.20;;;5.65;;
50291;SDS011;36190;54.980;73.388;2023-03-11T14:05:18;11.75;;;5.20;;
50291;SDS011;36190;54.980;73.388;2023-03-11T14:07:49;11.32;;;4.78;;
50291;SDS011;36190;54.980;73.388;2023-03-11T14:10:18;10.45;;;4.63;;
50291;SDS011;36190;54.980;73.388;2023-03-11T14:12:51;9.43;;;4.47;;
50291;SDS011;36190;54.980;73.388;2023-03-11T14:15:29;10.40;;;4.95;;
50291;SDS011;36190;54.980;73.388;2023-03-11T14:18:28;11.25;;;4.95;;
50291;SDS011;36190;54.980;73.388;2023-03-11T14:20:58;10.32;;;4.63;;
50291;SDS011;36190;54.980;73.388;2023-03-11T14:23:28;12.48;;;4.68;;
50291;SDS011;36190;54.980;73.388;2023-03-11T14:25:59;12.00;;;5.47;;
50291;SDS011;36190;54.980;73.388;2023-03-11T14:28:30;11.10;;;5.00;;
50291;SDS011;36190;54.980;73.388;2023-03-11T14:31:00;11.05;;;5.40;;
50291;SDS011;36190;54.980;73.388;2023-03-11T14:33:29;11.43;;;5.13;;
50291;SDS011;36190;54.980;73.388;2023-03-11T14:36:01;11.48;;;5.03;;
50291;SDS011;36190;54.980;73.388;2023-03-11T14:38:34;13.55;;;5.57;;
50291;SDS011;36190;54.980;73.388;2023-03-11T14:41:09;11.07;;;4.82;;
50291;SDS011;36190;54.980;73.388;2023-03-11T14:43:40;10.82;;;4.78;;
50291;SDS011;36190;54.980;73.388;2023-03-11T14:46:12;11.77;;;5.10;;
50291;SDS011;36190;54.980;73.388;2023-03-11T14:48:45;12.65;;;5.15;;
50291;SDS011;36190;54.980;73.388;2023-03-11T14:51:15;11.23;;;5.07;;
50291;SDS011;36190;54.980;73.388;2023-03-11T14:53:49;12.15;;;5.80;;
50291;SDS011;36190;54.980;73.388;2023-03-11T14:56:24;14.82;;;5.57;;
50291;SDS011;36190;54.980;73.388;2023-03-11T14:58:54;9.98;;;4.70;;
50291;SDS011;36190;54.980;73.388;2023-03-11T15:01:29;10.73;;;4.88;;
50291;SDS011;36190;54.980;73.388;2023-03-11T15:04:00;10.40;;;5.38;;